sensor_id;sensor_type;location;lat;lon;timestamp;temperature;humidity
19847;DHT22;10084;50.518;8.588;2022-08-03T00:01:39;20.10;85.50
19847;DHT22;10084;50.518;8.588;2022-08-03T00:04:06;20.20;81.20
19847;DHT22;10084;50.518;8.588;2022-08-03T00:06:32;20.10;80.40
19847;DHT22;10084;50.518;8.588;2022-08-03T00:08:58;20.10;81.60
19847;DHT22;10084;50.518;8.588;2022-08-03T00:11:24;20.20;83.20
19847;DHT22;10084;50.518;8.588;2022-08-03T03:07:15;18.00;91.50
19847;DHT22;10084;50.518;8.588;2022-08-03T03:12:09;17.90;86.00
19847;DHT22;10084;50.518;8.588;2022-08-03T03:14:37;17.90;85.00
19847;DHT22;10084;50.518;8.588;2022-08-03T03:17:05;18.00;85.60
19847;DHT22;10084;50.518;8.588;2022-08-03T03:53:54;17.40;86.20
19847;DHT22;10084;50.518;8.588;2022-08-03T03:56:20;17.40;82.40
19847;DHT22;10084;50.518;8.588;2022-08-03T03:58:46;17.40;81.60
19847;DHT22;10084;50.518;8.588;2022-08-03T04:01:12;17.40;81.30
19847;DHT22;10084;50.518;8.588;2022-08-03T04:03:38;17.50;81.50
19847;DHT22;10084;50.518;8.588;2022-08-03T04:06:03;17.50;82.30
19847;DHT22;10084;50.518;8.588;2022-08-03T04:08:47;17.50;81.20
19847;DHT22;10084;50.518;8.588;2022-08-03T04:11:39;17.50;79.50
19847;DHT22;10084;50.518;8.588;2022-08-03T04:14:09;17.50;79.50
19847;DHT22;10084;50.518;8.588;2022-08-03T04:16:38;17.50;79.40
19847;DHT22;10084;50.518;8.588;2022-08-03T04:19:14;17.60;79.40
19847;DHT22;10084;50.518;8.588;2022-08-03T04:21:43;17.60;79.40
19847;DHT22;10084;50.518;8.588;2022-08-03T04:24:11;17.60;79.50
19847;DHT22;10084;50.518;8.588;2022-08-03T04:26:39;17.60;79.60
19847;DHT22;10084;50.518;8.588;2022-08-03T04:29:06;17.70;79.80
19847;DHT22;10084;50.518;8.588;2022-08-03T04:31:34;17.70;79.80
19847;DHT22;10084;50.518;8.588;2022-08-03T04:34:01;17.70;80.00
19847;DHT22;10084;50.518;8.588;2022-08-03T04:36:31;17.70;80.20
19847;DHT22;10084;50.518;8.588;2022-08-03T04:39:15;17.70;80.50
19847;DHT22;10084;50.518;8.588;2022-08-03T04:41:43;17.70;80.70
19847;DHT22;10084;50.518;8.588;2022-08-03T04:44:10;17.80;81.00
19847;DHT22;10084;50.518;8.588;2022-08-03T04:46:38;17.80;81.10
19847;DHT22;10084;50.518;8.588;2022-08-03T04:49:05;17.80;81.50
19847;DHT22;10084;50.518;8.588;2022-08-03T04:51:32;17.80;82.50
19847;DHT22;10084;50.518;8.588;2022-08-03T04:53:59;17.90;80.10
19847;DHT22;10084;50.518;8.588;2022-08-03T04:56:25;17.90;79.90
19847;DHT22;10084;50.518;8.588;2022-08-03T04:58:51;17.90;79.90
19847;DHT22;10084;50.518;8.588;2022-08-03T05:01:18;18.00;80.20
19847;DHT22;10084;50.518;8.588;2022-08-03T05:03:45;18.00;80.40
19847;DHT22;10084;50.518;8.588;2022-08-03T05:06:11;18.00;80.60
19847;DHT22;10084;50.518;8.588;2022-08-03T05:08:38;18.10;80.90
19847;DHT22;10084;50.518;8.588;2022-08-03T05:11:03;18.10;81.10
19847;DHT22;10084;50.518;8.588;2022-08-03T05:13:29;18.20;81.40
19847;DHT22;10084;50.518;8.588;2022-08-03T05:15:55;18.20;82.40
19847;DHT22;10084;50.518;8.588;2022-08-03T05:18:20;18.30;84.40
19847;DHT22;10084;50.518;8.588;2022-08-03T05:20:46;18.40;84.90
19847;DHT22;10084;50.518;8.588;2022-08-03T05:23:12;18.10;87.20
19847;DHT22;10084;50.518;8.588;2022-08-03T05:25:38;18.80;85.20
19847;DHT22;10084;50.518;8.588;2022-08-03T05:28:03;19.20;85.40
19847;DHT22;10084;50.518;8.588;2022-08-03T05:30:29;19.90;86.40
19847;DHT22;10084;50.518;8.588;2022-08-03T05:32:55;20.70;87.80
19847;DHT22;10084;50.518;8.588;2022-08-03T05:37:49;22.20;91.10
19847;DHT22;10084;50.518;8.588;2022-08-03T05:47:48;25.40;90.30
19847;DHT22;10084;50.518;8.588;2022-08-03T05:50:16;25.40;86.70
19847;DHT22;10084;50.518;8.588;2022-08-03T12:02:26;37.40;62.40
19847;DHT22;10084;50.518;8.588;2022-08-03T12:07:29;37.20;59.90
19847;DHT22;10084;50.518;8.588;2022-08-03T12:12:38;37.70;56.40
19847;DHT22;10084;50.518;8.588;2022-08-03T12:15:05;37.20;57.00
19847;DHT22;10084;50.518;8.588;2022-08-03T12:17:38;37.20;57.50
19847;DHT22;10084;50.518;8.588;2022-08-03T12:24:58;37.00;53.80
19847;DHT22;10084;50.518;8.588;2022-08-03T12:27:24;37.00;57.10
19847;DHT22;10084;50.518;8.588;2022-08-03T12:29:53;36.90;56.20
19847;DHT22;10084;50.518;8.588;2022-08-03T12:32:19;36.70;55.50
19847;DHT22;10084;50.518;8.588;2022-08-03T12:34:46;36.50;56.00
19847;DHT22;10084;50.518;8.588;2022-08-03T12:39:37;35.80;56.60
19847;DHT22;10084;50.518;8.588;2022-08-03T12:42:03;35.70;58.80
19847;DHT22;10084;50.518;8.588;2022-08-03T12:44:31;35.50;56.50
19847;DHT22;10084;50.518;8.588;2022-08-03T16:07:44;34.00;58.30
19847;DHT22;10084;50.518;8.588;2022-08-03T16:15:43;34.00;56.80
19847;DHT22;10084;50.518;8.588;2022-08-03T16:18:09;34.00;52.30
19847;DHT22;10084;50.518;8.588;2022-08-03T16:20:35;34.00;52.50
19847;DHT22;10084;50.518;8.588;2022-08-03T16:23:03;34.00;52.90
19847;DHT22;10084;50.518;8.588;2022-08-03T16:25:29;34.00;53.30
19847;DHT22;10084;50.518;8.588;2022-08-03T16:27:55;33.90;53.60
19847;DHT22;10084;50.518;8.588;2022-08-03T16:30:21;33.90;54.10
19847;DHT22;10084;50.518;8.588;2022-08-03T16:32:47;33.90;55.20
19847;DHT22;10084;50.518;8.588;2022-08-03T16:35:13;33.80;55.20
19847;DHT22;10084;50.518;8.588;2022-08-03T17:15:11;33.40;61.30
19847;DHT22;10084;50.518;8.588;2022-08-03T18:14:15;32.30;65.90
19847;DHT22;10084;50.518;8.588;2022-08-03T18:16:56;32.30;56.60
19847;DHT22;10084;50.518;8.588;2022-08-03T18:19:26;32.20;55.60
19847;DHT22;10084;50.518;8.588;2022-08-03T18:21:53;32.10;54.80
19847;DHT22;10084;50.518;8.588;2022-08-03T18:24:19;32.00;54.80
19847;DHT22;10084;50.518;8.588;2022-08-03T18:26:47;32.00;55.30
19847;DHT22;10084;50.518;8.588;2022-08-03T18:36:33;31.50;52.30
19847;DHT22;10084;50.518;8.588;2022-08-03T18:39:03;31.60;53.60
19847;DHT22;10084;50.518;8.588;2022-08-03T19:44:32;28.50;70.30
19847;DHT22;10084;50.518;8.588;2022-08-03T19:47:09;28.60;66.90
19847;DHT22;10084;50.518;8.588;2022-08-03T19:49:38;28.50;66.90
19847;DHT22;10084;50.518;8.588;2022-08-03T20:47:24;26.40;61.30
19847;DHT22;10084;50.518;8.588;2022-08-03T20:49:51;26.30;62.90
19847;DHT22;10084;50.518;8.588;2022-08-03T20:52:17;26.20;63.60
19847;DHT22;10084;50.518;8.588;2022-08-03T20:54:43;26.10;63.80
19847;DHT22;10084;50.518;8.588;2022-08-03T20:57:11;26.00;64.00
19847;DHT22;10084;50.518;8.588;2022-08-03T20:59:38;25.90;64.40
19847;DHT22;10084;50.518;8.588;2022-08-03T21:02:04;25.80;64.60
19847;DHT22;10084;50.518;8.588;2022-08-03T21:04:29;25.70;64.90
19847;DHT22;10084;50.518;8.588;2022-08-03T21:06:58;25.60;65.20
19847;DHT22;10084;50.518;8.588;2022-08-03T21:09:29;25.60;65.50
19847;DHT22;10084;50.518;8.588;2022-08-03T21:12:00;25.50;65.70
19847;DHT22;10084;50.518;8.588;2022-08-03T21:14:42;25.50;65.90
19847;DHT22;10084;50.518;8.588;2022-08-03T21:17:08;25.40;66.20
19847;DHT22;10084;50.518;8.588;2022-08-03T21:19:38;25.40;66.50
19847;DHT22;10084;50.518;8.588;2022-08-03T21:22:07;25.30;66.90
19847;DHT22;10084;50.518;8.588;2022-08-03T21:24:34;25.30;67.30
19847;DHT22;10084;50.518;8.588;2022-08-03T21:27:02;25.20;67.70
19847;DHT22;10084;50.518;8.588;2022-08-03T21:29:28;25.20;68.30
19847;DHT22;10084;50.518;8.588;2022-08-03T21:31:55;25.10;69.40
19847;DHT22;10084;50.518;8.588;2022-08-03T21:34:22;24.90;73.40
19847;DHT22;10084;50.518;8.588;2022-08-03T21:36:48;24.90;72.60
19847;DHT22;10084;50.518;8.588;2022-08-03T21:39:14;24.90;71.90
19847;DHT22;10084;50.518;8.588;2022-08-03T21:41:40;24.80;70.60
19847;DHT22;10084;50.518;8.588;2022-08-03T21:44:06;24.80;70.70
19847;DHT22;10084;50.518;8.588;2022-08-03T21:46:38;24.80;70.90
19847;DHT22;10084;50.518;8.588;2022-08-03T21:49:06;24.80;71.70
19847;DHT22;10084;50.518;8.588;2022-08-03T21:51:35;24.70;72.80
19847;DHT22;10084;50.518;8.588;2022-08-03T21:54:02;24.70;73.60
19847;DHT22;10084;50.518;8.588;2022-08-03T21:56:39;24.60;69.20
19847;DHT22;10084;50.518;8.588;2022-08-03T21:59:06;24.50;69.50
19847;DHT22;10084;50.518;8.588;2022-08-03T22:01:34;24.50;70.20
19847;DHT22;10084;50.518;8.588;2022-08-03T22:04:02;24.40;71.60
19847;DHT22;10084;50.518;8.588;2022-08-03T22:06:30;24.30;72.10
19847;DHT22;10084;50.518;8.588;2022-08-03T22:08:56;24.30;74.10
19847;DHT22;10084;50.518;8.588;2022-08-03T22:11:22;24.30;72.80
19847;DHT22;10084;50.518;8.588;2022-08-03T22:13:49;24.30;72.40
19847;DHT22;10084;50.518;8.588;2022-08-03T22:16:15;24.30;73.30
19847;DHT22;10084;50.518;8.588;2022-08-03T22:18:45;24.60;76.10
19847;DHT22;10084;50.518;8.588;2022-08-03T22:21:13;24.10;73.10
19847;DHT22;10084;50.518;8.588;2022-08-03T22:23:42;24.10;73.10
19847;DHT22;10084;50.518;8.588;2022-08-03T22:26:13;24.10;73.50
19847;DHT22;10084;50.518;8.588;2022-08-03T22:28:39;24.00;71.90
19847;DHT22;10084;50.518;8.588;2022-08-03T22:31:06;24.00;72.30
19847;DHT22;10084;50.518;8.588;2022-08-03T22:33:33;23.90;72.60
19847;DHT22;10084;50.518;8.588;2022-08-03T22:36:03;23.90;73.40
19847;DHT22;10084;50.518;8.588;2022-08-03T22:38:31;23.90;74.80
19847;DHT22;10084;50.518;8.588;2022-08-03T22:40:57;23.80;75.80
19847;DHT22;10084;50.518;8.588;2022-08-03T22:43:24;23.80;75.60
19847;DHT22;10084;50.518;8.588;2022-08-03T22:45:52;23.70;76.10
19847;DHT22;10084;50.518;8.588;2022-08-03T22:48:19;23.70;76.70
19847;DHT22;10084;50.518;8.588;2022-08-03T22:50:48;23.60;76.10
19847;DHT22;10084;50.518;8.588;2022-08-03T22:53:19;23.70;73.50
19847;DHT22;10084;50.518;8.588;2022-08-03T22:55:50;23.70;73.40
19847;DHT22;10084;50.518;8.588;2022-08-03T22:58:17;23.70;73.60
19847;DHT22;10084;50.518;8.588;2022-08-03T23:01:11;23.70;74.00
19847;DHT22;10084;50.518;8.588;2022-08-03T23:03:41;23.60;74.60
19847;DHT22;10084;50.518;8.588;2022-08-03T23:06:13;23.60;75.60
19847;DHT22;10084;50.518;8.588;2022-08-03T23:08:45;23.60;76.50
19847;DHT22;10084;50.518;8.588;2022-08-03T23:11:13;23.50;77.40
19847;DHT22;10084;50.518;8.588;2022-08-03T23:13:40;23.50;76.50
19847;DHT22;10084;50.518;8.588;2022-08-03T23:21:05;23.40;79.00
19847;DHT22;10084;50.518;8.588;2022-08-03T23:23:31;23.40;76.10
19847;DHT22;10084;50.518;8.588;2022-08-03T23:25:58;23.40;76.40
19847;DHT22;10084;50.518;8.588;2022-08-03T23:30:52;23.60;80.70
19847;DHT22;10084;50.518;8.588;2022-08-03T23:33:20;23.30;75.10
19847;DHT22;10084;50.518;8.588;2022-08-03T23:35:46;23.30;75.30
19847;DHT22;10084;50.518;8.588;2022-08-03T23:38:23;23.20;75.60
19847;DHT22;10084;50.518;8.588;2022-08-03T23:40:49;23.20;76.10
19847;DHT22;10084;50.518;8.588;2022-08-03T23:43:15;23.10;76.50
19847;DHT22;10084;50.518;8.588;2022-08-03T23:45:43;23.10;77.20
19847;DHT22;10084;50.518;8.588;2022-08-03T23:48:09;23.00;77.70
19847;DHT22;10084;50.518;8.588;2022-08-03T23:59:05;22.80;78.40
